Time;durP1;ratioP1;P1;durP2;ratioP2;P2;SDS_P1;SDS_P2;PMS_P1;PMS_P2;Temp;Humidity;BMP_temperature;BMP_pressure;BME280_temperature;BME280_humidity;BME280_pressure;Samples;Min_cycle;Max_cycle;Signal;HPM_P1;HPM_P2
2021/03/05 00:00:51;;;;;;;66.32;37.00;;;7.20;74.80;;;;;;5072444;28;20123;-77
2021/03/05 00:03:17;;;;;;;63.95;36.85;;;7.20;74.80;;;;;;5071901;28;20795;-76
2021/03/05 00:05:44;;;;;;;66.55;37.90;;;7.20;74.70;;;;;;5071814;28;20111;-78
2021/03/05 00:08:15;;;;;;;73.05;40.90;;;7.20;74.70;;;;;;5070682;28;20113;-77
2021/03/05 00:10:42;;;;;;;67.67;38.13;;;7.20;74.60;;;;;;5071237;28;20557;-78
2021/03/05 00:13:09;;;;;;;65.60;38.17;;;7.30;74.60;;;;;;5071926;28;20096;-78
2021/03/05 00:15:37;;;;;;;72.18;39.85;;;7.30;74.50;;;;;;5072257;28;20458;-76
2021/03/05 00:18:03;;;;;;;67.40;39.65;;;7.30;74.40;;;;;;5072106;28;20470;-75
2021/03/05 00:20:31;;;;;;;71.40;40.88;;;7.30;74.40;;;;;;5071725;28;20017;-75
2021/03/05 00:22:58;;;;;;;69.03;40.92;;;7.20;74.30;;;;;;5070358;28;20020;-76
2021/03/05 00:25:24;;;;;;;72.03;39.85;;;7.20;74.40;;;;;;5071813;28;20039;-76
2021/03/05 00:27:49;;;;;;;74.57;40.75;;;7.20;74.50;;;;;;5072197;28;20051;-76
2021/03/05 00:30:16;;;;;;;69.07;39.67;;;7.20;74.60;;;;;;5072056;28;20051;-76
2021/03/05 00:32:43;;;;;;;72.88;40.80;;;7.20;74.60;;;;;;5071943;28;20778;-76
2021/03/05 00:35:11;;;;;;;71.20;39.03;;;7.20;74.60;;;;;;5072202;28;20056;-75
2021/03/05 00:37:38;;;;;;;75.35;40.13;;;7.30;74.70;;;;;;5072022;28;20040;-76
2021/03/05 00:40:06;;;;;;;89.47;42.97;;;7.30;74.70;;;;;;5070588;28;20154;-77
2021/03/05 00:42:32;;;;;;;78.07;42.47;;;7.30;74.60;;;;;;5071143;28;20029;-76
2021/03/05 00:44:58;;;;;;;80.93;44.25;;;7.30;74.50;;;;;;5070093;28;20390;-75
2021/03/05 00:47:23;;;;;;;79.65;43.95;;;7.30;74.60;;;;;;5070427;28;20036;-77
2021/03/05 00:49:49;;;;;;;79.30;42.97;;;7.30;74.60;;;;;;5071403;28;20028;-75
2021/03/05 00:52:15;;;;;;;73.22;43.67;;;7.30;74.60;;;;;;5071568;28;20025;-76
2021/03/05 00:54:40;;;;;;;82.45;44.65;;;7.30;74.60;;;;;;5071424;28;20052;-76
2021/03/05 00:57:06;;;;;;;78.95;42.97;;;7.40;75.20;;;;;;5071448;28;20025;-78
2021/03/05 00:59:32;;;;;;;74.65;41.78;;;7.40;74.60;;;;;;5071503;28;20063;-75
2021/03/05 01:01:59;;;;;;;80.47;44.75;;;7.40;74.60;;;;;;5074976;28;20471;-76
2021/03/05 01:04:24;;;;;;;84.55;45.35;;;7.40;74.60;;;;;;5073578;28;20479;-77
2021/03/05 01:06:50;;;;;;;87.57;46.65;;;7.40;74.50;;;;;;5074529;28;20062;-76
2021/03/05 01:09:16;;;;;;;85.57;46.40;;;7.30;74.40;;;;;;5074941;28;20039;-75
2021/03/05 01:11:42;;;;;;;78.18;44.45;;;7.30;74.40;;;;;;5072982;28;20106;-75
2021/03/05 01:14:08;;;;;;;82.32;44.80;;;7.30;74.30;;;;;;5074437;28;20104;-75
2021/03/05 01:16:34;;;;;;;81.65;43.22;;;7.20;74.50;;;;;;5072938;28;20115;-75
2021/03/05 01:18:59;;;;;;;83.57;44.97;;;7.20;74.60;;;;;;5073028;28;20183;-76
2021/03/05 01:21:25;;;;;;;78.03;44.70;;;7.20;74.70;;;;;;5073101;28;20029;-77
2021/03/05 01:23:51;;;;;;;83.97;43.50;;;7.20;74.80;;;;;;5074657;28;20024;-77
2021/03/05 01:26:17;;;;;;;75.10;41.78;;;7.20;74.80;;;;;;5074434;28;20482;-77
2021/03/05 01:28:45;;;;;;;81.18;45.10;;;7.30;74.90;;;;;;5074375;28;20060;-76
2021/03/05 01:31:15;;;;;;;75.47;43.55;;;7.30;74.80;;;;;;5074238;28;20085;-77
2021/03/05 01:33:42;;;;;;;75.63;44.25;;;7.20;74.60;;;;;;5072990;28;20094;-77
2021/03/05 01:36:09;;;;;;;78.95;44.20;;;7.20;74.60;;;;;;5074404;28;20053;-77
2021/03/05 01:38:34;;;;;;;77.75;41.70;;;7.20;74.60;;;;;;5073060;28;20073;-77
2021/03/05 01:41:00;;;;;;;77.65;41.95;;;7.10;74.60;;;;;;5073011;28;20115;-77
2021/03/05 01:43:29;;;;;;;73.80;41.33;;;7.00;74.60;;;;;;5074359;28;20021;-76
2021/03/05 01:45:55;;;;;;;83.45;41.38;;;7.00;74.70;;;;;;5074419;28;20017;-76
2021/03/05 01:48:21;;;;;;;79.38;41.78;;;6.90;74.50;;;;;;5074007;28;20029;-77
2021/03/05 01:50:50;;;;;;;78.35;42.00;;;6.80;74.30;;;;;;5074076;28;20383;-76
2021/03/05 01:53:17;;;;;;;86.75;41.67;;;6.70;74.50;;;;;;5074146;28;20042;-75
2021/03/05 01:55:43;;;;;;;82.80;42.08;;;6.70;74.70;;;;;;5074120;28;20017;-75
2021/03/05 01:58:09;;;;;;;83.80;43.35;;;6.60;74.80;;;;;;5072909;28;20017;-76
2021/03/05 02:00:38;;;;;;;103.25;53.47;;;6.60;74.80;;;;;;5074226;28;20020;-76
2021/03/05 02:03:04;;;;;;;110.18;61.13;;;6.60;75.00;;;;;;5073524;28;20074;-76
2021/03/05 02:05:31;;;;;;;105.72;54.95;;;6.50;75.10;;;;;;5073744;28;20055;-76
2021/03/05 02:07:57;;;;;;;105.00;54.22;;;6.50;75.20;;;;;;5073444;28;20021;-75
2021/03/05 02:10:23;;;;;;;103.07;52.00;;;6.50;75.40;;;;;;5073349;28;20048;-76
2021/03/05 02:12:48;;;;;;;100.10;49.55;;;6.50;75.40;;;;;;5073359;28;20059;-75
2021/03/05 02:15:15;;;;;;;96.35;44.33;;;6.50;75.40;;;;;;5073553;28;20763;-75
2021/03/05 02:17:40;;;;;;;90.13;43.97;;;6.40;75.40;;;;;;5072213;28;20031;-75
2021/03/05 02:20:44;;;;;;;93.90;43.75;;;6.40;75.30;;;;;;5073328;28;20104;-75
2021/03/05 02:23:24;;;;;;;93.28;41.40;;;6.30;75.30;;;;;;5073363;28;20467;-76
2021/03/05 02:26:02;;;;;;;97.88;44.15;;;6.30;75.30;;;;;;5073296;28;20111;-76
2021/03/05 02:28:57;;;;;;;96.57;43.58;;;6.20;75.40;;;;;;5073425;28;20028;-76
2021/03/05 02:31:37;;;;;;;91.90;43.30;;;6.20;75.50;;;;;;5072764;28;20020;-75
2021/03/05 02:34:14;;;;;;;101.85;50.13;;;6.20;75.60;;;;;;5072805;28;20028;-75
2021/03/05 02:36:55;;;;;;;112.38;55.50;;;6.20;75.60;;;;;;5072734;28;20067;-76
2021/03/05 02:39:42;;;;;;;116.78;55.47;;;6.20;75.70;;;;;;5072517;28;20024;-75
2021/03/05 02:42:14;;;;;;;117.88;53.33;;;6.10;75.70;;;;;;5072771;28;20020;-75
2021/03/05 02:44:46;;;;;;;98.97;44.15;;;6.10;75.80;;;;;;5073021;28;20135;-75
2021/03/05 02:47:15;;;;;;;;;;;6.10;75.80;;;;;;5073703;28;20026;-76
2021/03/05 02:49:43;;;;;;;98.53;45.47;;;6.10;75.80;;;;;;5071552;28;20012;-77
2021/03/05 02:52:16;;;;;;;109.35;49.03;;;6.10;75.90;;;;;;5072693;28;20020;-77
2021/03/05 02:54:43;;;;;;;112.30;53.08;;;6.10;76.00;;;;;;5072495;28;20020;-77
2021/03/05 02:57:15;;;;;;;114.93;55.53;;;6.10;76.10;;;;;;5072612;28;20020;-77
2021/03/05 02:59:42;;;;;;;119.25;59.50;;;6.10;76.30;;;;;;5072471;28;20020;-77
2021/03/05 03:02:10;;;;;;;118.15;52.47;;;6.10;76.30;;;;;;5072263;28;20032;-78
2021/03/05 03:04:37;;;;;;;107.90;49.78;;;6.20;76.40;;;;;;5071469;28;20075;-78
2021/03/05 03:07:04;;;;;;;103.10;47.08;;;6.20;76.50;;;;;;5072332;28;20040;-76
2021/03/05 03:09:31;;;;;;;96.32;43.80;;;6.20;76.50;;;;;;5072698;28;21104;-77
2021/03/05 03:11:58;;;;;;;98.30;43.22;;;6.20;76.50;;;;;;5072798;28;20079;-77
2021/03/05 03:14:24;;;;;;;97.75;41.97;;;6.20;76.50;;;;;;5072497;28;20028;-77
2021/03/05 03:16:51;;;;;;;92.65;42.28;;;6.20;76.40;;;;;;5072650;28;20066;-77
2021/03/05 03:19:20;;;;;;;85.45;38.47;;;6.20;76.40;;;;;;5072359;28;20028;-78
2021/03/05 03:21:46;;;;;;;84.45;37.63;;;6.20;76.30;;;;;;5071032;28;20075;-76
2021/03/05 03:24:12;;;;;;;81.03;36.88;;;6.20;76.10;;;;;;5071098;28;20032;-76
2021/03/05 03:26:39;;;;;;;80.28;37.08;;;6.20;76.20;;;;;;5072379;28;20079;-78
2021/03/05 03:29:11;;;;;;;80.30;36.63;;;6.20;76.00;;;;;;5071942;28;20039;-78
2021/03/05 03:31:38;;;;;;;71.57;35.65;;;6.20;76.00;;;;;;5071650;28;20387;-78
2021/03/05 03:34:05;;;;;;;74.57;35.47;;;6.20;75.90;;;;;;5072438;28;20036;-77
2021/03/05 03:36:36;;;;;;;99.15;41.33;;;6.20;75.80;;;;;;5072191;28;20102;-77
2021/03/05 03:39:03;;;;;;;99.00;39.85;;;6.20;75.80;;;;;;5072017;28;20025;-78
2021/03/05 03:41:29;;;;;;;87.13;38.55;;;6.20;75.70;;;;;;5071978;28;20052;-77
2021/03/05 03:43:55;;;;;;;89.05;38.92;;;6.20;75.60;;;;;;5071722;28;20494;-77
2021/03/05 03:46:20;;;;;;;86.63;37.33;;;6.20;75.60;;;;;;5070546;28;20028;-77
2021/03/05 03:48:53;;;;;;;80.93;36.35;;;6.20;75.60;;;;;;5070356;28;20048;-77
2021/03/05 03:51:20;;;;;;;;;;;6.10;75.50;;;;;;5072160;28;20436;-76
2021/03/05 03:53:48;;;;;;;76.20;34.28;;;6.10;75.50;;;;;;5071922;28;19999;-76
2021/03/05 03:56:14;;;;;;;78.45;35.35;;;6.10;75.40;;;;;;5071948;28;20478;-75
2021/03/05 03:58:41;;;;;;;83.38;36.25;;;6.10;75.40;;;;;;5070607;28;20025;-76
2021/03/05 04:01:09;;;;;;;79.95;35.30;;;6.10;75.40;;;;;;5071627;28;20084;-76
2021/03/05 04:03:38;;;;;;;84.55;35.05;;;6.10;75.40;;;;;;5071503;28;20070;-76
2021/03/05 04:06:06;;;;;;;72.63;33.13;;;6.00;75.30;;;;;;5071671;28;20029;-76
2021/03/05 04:08:38;;;;;;;74.15;34.03;;;6.10;75.30;;;;;;5071583;28;20024;-76
2021/03/05 04:11:05;;;;;;;71.00;32.38;;;6.10;75.20;;;;;;5070322;28;20043;-76
2021/03/05 04:13:32;;;;;;;70.40;31.02;;;6.00;75.10;;;;;;5071535;28;20132;-76
2021/03/05 04:15:58;;;;;;;70.07;32.63;;;6.10;75.10;;;;;;5071550;28;20016;-79
2021/03/05 04:18:34;;;;;;;62.78;30.10;;;6.00;75.00;;;;;;5071087;28;20021;-79
2021/03/05 04:21:04;;;;;;;66.97;32.38;;;6.00;74.90;;;;;;5071354;28;20056;-78
2021/03/05 04:23:30;;;;;;;66.63;31.27;;;6.00;74.90;;;;;;5071522;28;20036;-79
2021/03/05 04:25:56;;;;;;;64.32;29.33;;;6.00;74.80;;;;;;5071685;28;20028;-77
2021/03/05 04:28:21;;;;;;;67.40;31.40;;;6.00;74.80;;;;;;5072012;28;20029;-78
2021/03/05 04:30:47;;;;;;;65.90;31.15;;;5.90;74.70;;;;;;5071656;28;20033;-78
2021/03/05 04:33:13;;;;;;;64.40;30.35;;;5.90;74.70;;;;;;5071884;28;20021;-77
2021/03/05 04:35:38;;;;;;;70.32;31.80;;;5.90;74.70;;;;;;5074828;28;20032;-77
2021/03/05 04:38:04;;;;;;;64.15;30.58;;;5.90;74.70;;;;;;5074237;28;20382;-78
2021/03/05 04:40:30;;;;;;;85.60;35.88;;;5.90;74.70;;;;;;5074085;28;20016;-79
2021/03/05 04:42:56;;;;;;;100.20;44.60;;;5.90;74.70;;;;;;5074388;28;20189;-79
2021/03/05 04:45:22;;;;;;;81.18;34.90;;;5.90;74.70;;;;;;5073960;28;20028;-79
2021/03/05 04:47:47;;;;;;;68.63;33.75;;;5.90;74.70;;;;;;5075300;28;20497;-79
2021/03/05 04:50:13;;;;;;;81.60;36.75;;;5.90;74.70;;;;;;5074868;28;20048;-79
2021/03/05 04:52:39;;;;;;;68.68;33.33;;;5.90;74.60;;;;;;5075013;28;20099;-78
2021/03/05 04:55:06;;;;;;;73.50;33.63;;;5.90;74.60;;;;;;5073690;28;20051;-78
2021/03/05 04:57:32;;;;;;;67.70;31.23;;;5.90;74.70;;;;;;5073294;28;20036;-76
2021/03/05 04:59:57;;;;;;;74.88;33.17;;;5.80;74.80;;;;;;5072655;28;20027;-76
2021/03/05 05:02:23;;;;;;;66.28;31.90;;;5.80;75.00;;;;;;5074082;28;20024;-77
2021/03/05 05:04:49;;;;;;;66.53;32.20;;;5.80;75.20;;;;;;5074486;28;20035;-76
2021/03/05 05:07:14;;;;;;;73.07;33.33;;;5.80;75.40;;;;;;5074267;28;20034;-76
2021/03/05 05:09:40;;;;;;;70.93;32.72;;;5.70;75.50;;;;;;5074015;28;20029;-76
2021/03/05 05:12:06;;;;;;;72.22;33.05;;;5.70;75.80;;;;;;5072804;28;20028;-76
2021/03/05 05:14:32;;;;;;;79.00;35.10;;;5.70;75.90;;;;;;5072654;28;20021;-75
2021/03/05 05:16:57;;;;;;;73.57;34.17;;;5.70;76.20;;;;;;5074195;28;20091;-76
2021/03/05 05:19:23;;;;;;;78.45;35.58;;;5.70;76.30;;;;;;5074080;28;20020;-76
2021/03/05 05:21:49;;;;;;;79.22;35.40;;;5.60;76.40;;;;;;5074136;28;20510;-76
2021/03/05 05:24:15;;;;;;;75.60;36.47;;;5.60;76.50;;;;;;5074086;28;20024;-76
2021/03/05 05:26:40;;;;;;;82.43;37.72;;;5.60;76.70;;;;;;5073236;28;20024;-76
2021/03/05 05:29:06;;;;;;;91.95;45.78;;;5.60;76.80;;;;;;5073588;28;20036;-79
2021/03/05 05:31:32;;;;;;;104.03;51.67;;;5.60;76.90;;;;;;5073580;28;20058;-76
2021/03/05 05:33:57;;;;;;;113.90;53.42;;;5.70;77.00;;;;;;5071877;28;20077;-76
2021/03/05 05:36:23;;;;;;;91.10;42.47;;;5.70;77.00;;;;;;5072056;28;20090;-76
2021/03/05 05:38:49;;;;;;;76.40;38.00;;;5.70;77.00;;;;;;5071954;28;20028;-76
2021/03/05 05:41:15;;;;;;;81.82;40.70;;;5.70;77.10;;;;;;5073211;28;20031;-77
2021/03/05 05:43:41;;;;;;;89.05;42.80;;;5.70;77.10;;;;;;5073507;28;20051;-77
2021/03/05 05:46:08;;;;;;;91.25;42.13;;;5.70;77.20;;;;;;5073616;28;20052;-77
2021/03/05 05:48:38;;;;;;;79.70;37.33;;;5.80;77.30;;;;;;5073170;28;20035;-76
2021/03/05 05:51:18;;;;;;;78.53;39.05;;;5.80;77.30;;;;;;5072748;28;20028;-77
2021/03/05 05:53:46;;;;;;;86.65;40.70;;;5.80;77.20;;;;;;5072835;28;20025;-77
2021/03/05 05:56:19;;;;;;;84.32;38.35;;;5.80;77.20;;;;;;5073396;28;20024;-76
2021/03/05 05:58:45;;;;;;;81.88;40.35;;;5.90;77.20;;;;;;5073247;28;20013;-77
2021/03/05 06:01:12;;;;;;;77.72;38.60;;;5.90;77.10;;;;;;5073172;28;20387;-77
2021/03/05 06:03:39;;;;;;;87.80;40.88;;;5.90;76.90;;;;;;5072322;28;20048;-77
2021/03/05 06:06:06;;;;;;;101.57;49.28;;;5.90;76.80;;;;;;5072667;28;20054;-78
2021/03/05 06:08:32;;;;;;;93.65;43.10;;;5.90;76.70;;;;;;5071953;28;20534;-77
2021/03/05 06:10:58;;;;;;;83.75;38.45;;;5.90;76.60;;;;;;5072591;28;20352;-77
2021/03/05 06:13:26;;;;;;;79.30;38.58;;;5.90;76.50;;;;;;5071477;28;20023;-78
2021/03/05 06:16:30;;;;;;;70.93;35.45;;;5.90;76.50;;;;;;5071975;28;20021;-78
2021/03/05 06:18:58;;;;;;;79.18;37.63;;;5.90;76.50;;;;;;5030179;28;20080;-78
2021/03/05 06:21:40;;;;;;;73.72;37.08;;;5.90;76.40;;;;;;5030209;28;20021;-78
2021/03/05 06:24:10;;;;;;;70.90;34.38;;;5.90;76.40;;;;;;5014191;28;20307;-77
2021/03/05 06:26:52;;;;;;;69.82;34.33;;;5.90;76.40;;;;;;5029912;28;20034;-78
2021/03/05 06:29:21;;;;;;;83.90;37.92;;;5.90;76.50;;;;;;5013458;28;20051;-77
2021/03/05 06:31:55;;;;;;;101.13;49.35;;;6.00;76.60;;;;;;5030869;28;20531;-78
2021/03/05 06:34:21;;;;;;;95.45;44.30;;;6.10;76.40;;;;;;5013542;28;20029;-78
2021/03/05 06:37:01;;;;;;;88.53;41.67;;;6.10;76.10;;;;;;5013665;28;20059;-78
2021/03/05 06:39:29;;;;;;;88.13;38.80;;;6.10;75.90;;;;;;5030667;28;20467;-78
2021/03/05 06:42:01;;;;;;;80.35;37.95;;;6.20;75.80;;;;;;5029960;28;20055;-77
2021/03/05 06:44:27;;;;;;;77.85;36.42;;;6.20;75.70;;;;;;5029717;28;20064;-79
2021/03/05 06:46:53;;;;;;;74.22;36.15;;;6.30;75.50;;;;;;5013413;28;20048;-78
2021/03/05 06:49:19;;;;;;;77.22;35.13;;;6.30;75.40;;;;;;5045438;28;20041;-77
2021/03/05 06:51:53;;;;;;;65.78;31.05;;;6.40;75.30;;;;;;5070973;28;20025;-77
2021/03/05 06:54:20;;;;;;;64.15;30.48;;;6.40;75.60;;;;;;5070911;28;20036;-76
2021/03/05 06:56:48;;;;;;;81.93;39.22;;;6.50;74.80;;;;;;5070487;28;20406;-77
2021/03/05 06:59:16;;;;;;;66.40;32.80;;;6.50;74.40;;;;;;5071077;28;20025;-79
2021/03/05 07:01:55;;;;;;;73.32;37.83;;;6.60;74.40;;;;;;5070727;28;20032;-78
2021/03/05 07:04:27;;;;;;;75.95;39.40;;;6.60;74.20;;;;;;5072068;28;20048;-78
2021/03/05 07:07:06;;;;;;;;;;;6.70;74.20;;;;;;5071177;28;20021;-78
2021/03/05 07:09:43;;;;;;;61.25;31.73;;;6.80;74.10;;;;;;5071096;28;19952;-77
2021/03/05 07:12:26;;;;;;;59.58;29.60;;;6.90;73.80;;;;;;5070574;28;20031;-77
2021/03/05 07:15:06;;;;;;;56.92;28.50;;;6.90;73.40;;;;;;5071470;28;20055;-81
2021/03/05 07:17:33;;;;;;;59.78;28.52;;;6.90;73.10;;;;;;5072486;28;20027;-81
2021/03/05 07:19:59;;;;;;;58.60;27.63;;;6.90;72.70;;;;;;5072107;28;20090;-81
2021/03/05 07:22:27;;;;;;;52.08;24.88;;;6.90;72.50;;;;;;5071905;28;20100;-82
2021/03/05 07:24:55;;;;;;;47.75;22.92;;;6.90;72.30;;;;;;5072032;28;20082;-81
2021/03/05 07:27:28;;;;;;;47.88;24.50;;;6.90;72.10;;;;;;5074047;28;20423;-81
2021/03/05 07:29:56;;;;;;;46.08;22.70;;;6.90;71.70;;;;;;5071757;28;20421;-81
2021/03/05 07:32:34;;;;;;;47.83;23.85;;;6.90;71.20;;;;;;5073198;28;20024;-82
2021/03/05 07:35:03;;;;;;;50.40;23.70;;;6.80;70.80;;;;;;5072525;28;20025;-81
2021/03/05 07:37:45;;;;;;;56.08;29.42;;;6.80;70.70;;;;;;5072082;28;20032;-82
2021/03/05 07:40:14;;;;;;;51.95;27.92;;;6.70;70.50;;;;;;5071218;28;20078;-83
2021/03/05 07:42:40;;;;;;;54.97;29.48;;;6.60;70.60;;;;;;5071510;28;20032;-82
2021/03/05 07:45:07;;;;;;;49.30;27.38;;;6.60;70.60;;;;;;5070540;28;20143;-83
2021/03/05 07:47:36;;;;;;;67.07;34.80;;;6.60;70.40;;;;;;5071428;28;20024;-81
2021/03/05 07:50:05;;;;;;;58.60;30.08;;;6.50;70.30;;;;;;5069873;28;20031;-81
2021/03/05 07:52:31;;;;;;;60.10;28.25;;;6.40;70.30;;;;;;5071210;28;20032;-81
2021/03/05 07:54:57;;;;;;;49.92;26.15;;;6.40;70.60;;;;;;5071315;28;20023;-81
2021/03/05 07:57:22;;;;;;;62.47;31.35;;;6.40;70.80;;;;;;5071352;28;20051;-81
2021/03/05 07:59:50;;;;;;;59.03;30.23;;;6.40;70.80;;;;;;5071396;28;20379;-83
2021/03/05 08:02:21;;;;;;;62.42;32.92;;;6.40;70.70;;;;;;5071472;28;20103;-82
2021/03/05 08:04:50;;;;;;;57.80;27.73;;;6.40;70.60;;;;;;5072876;28;20029;-83
2021/03/05 08:07:28;;;;;;;70.97;36.45;;;6.40;70.60;;;;;;5072723;28;20039;-82
2021/03/05 08:09:56;;;;;;;52.30;26.60;;;6.40;70.60;;;;;;5074360;28;20111;-82
2021/03/05 08:15:08;;;;;;;70.15;32.58;;;6.40;70.50;;;;;;5078857;28;20113;-82
2021/03/05 08:17:40;;;;;;;68.65;33.38;;;6.50;70.60;;;;;;5077122;28;20028;-81
2021/03/05 08:20:10;;;;;;;50.85;25.98;;;6.50;70.40;;;;;;5077084;28;20123;-82
2021/03/05 08:22:58;;;;;;;53.17;27.42;;;6.40;69.90;;;;;;5076620;28;20060;-82
2021/03/05 08:25:29;;;;;;;44.30;23.00;;;6.40;70.10;;;;;;5075962;28;20024;-82
2021/03/05 08:27:56;;;;;;;47.90;24.50;;;6.40;70.20;;;;;;5076174;28;20382;-82
2021/03/05 08:30:35;;;;;;;48.33;23.98;;;6.40;70.20;;;;;;5074951;28;20266;-80
2021/03/05 08:33:07;;;;;;;47.17;23.10;;;6.50;70.40;;;;;;5074925;28;20024;-82
2021/03/05 08:35:37;;;;;;;46.25;24.05;;;6.60;70.60;;;;;;5077479;28;20021;-82
2021/03/05 08:38:14;;;;;;;68.60;30.55;;;6.70;70.30;;;;;;5076934;28;20020;-83
2021/03/05 08:40:51;;;;;;;49.80;24.63;;;6.70;70.10;;;;;;5076358;28;20028;-79
2021/03/05 08:43:27;;;;;;;52.25;25.42;;;6.80;69.70;;;;;;5076128;28;20074;-82
2021/03/05 08:45:57;;;;;;;56.70;26.50;;;6.80;69.30;;;;;;5077263;28;20095;-84
2021/03/05 08:48:34;;;;;;;50.53;24.75;;;6.70;68.90;;;;;;5076199;28;20344;-84
2021/03/05 08:51:21;;;;;;;47.55;23.70;;;6.60;69.20;;;;;;5076574;28;20390;-85
2021/03/05 08:53:53;;;;;;;46.40;22.92;;;6.60;69.50;;;;;;5078592;28;20016;-83
2021/03/05 08:56:20;;;;;;;46.35;23.75;;;6.70;69.60;;;;;;5077384;28;20104;-84
2021/03/05 08:58:56;;;;;;;51.05;25.75;;;6.70;69.40;;;;;;5082467;28;20043;-83
2021/03/05 09:01:51;;;;;;;49.38;26.48;;;6.70;69.40;;;;;;5084295;28;20035;-85
2021/03/05 09:04:19;;;;;;;42.70;23.02;;;6.70;69.30;;;;;;5075571;28;20131;-85
2021/03/05 09:06:53;;;;;;;40.03;22.10;;;6.70;69.20;;;;;;5080391;28;20033;-83
2021/03/05 09:09:23;;;;;;;51.80;24.60;;;6.70;69.00;;;;;;5075751;28;20070;-84
2021/03/05 09:12:25;;;;;;;51.00;25.98;;;6.70;68.90;;;;;;5076009;28;20027;-83
2021/03/05 09:15:01;;;;;;;52.97;24.58;;;6.70;69.00;;;;;;5037071;28;20022;-85
2021/03/05 09:17:27;;;;;;;45.70;23.70;;;6.80;69.00;;;;;;5073584;28;20028;-85
2021/03/05 09:19:53;;;;;;;46.75;23.63;;;6.80;69.00;;;;;;5075766;28;20486;-84
2021/03/05 09:22:26;;;;;;;52.35;25.95;;;6.80;69.00;;;;;;5075613;28;20029;-83
2021/03/05 09:24:58;;;;;;;45.72;22.88;;;6.90;69.50;;;;;;5075456;28;20367;-84
2021/03/05 09:27:36;;;;;;;47.45;23.55;;;6.90;68.70;;;;;;5074340;28;20059;-84
2021/03/05 09:30:18;;;;;;;53.33;24.95;;;7.00;68.70;;;;;;5075434;28;20030;-88
2021/03/05 09:32:52;;;;;;;48.97;24.58;;;7.00;68.60;;;;;;5075848;28;20029;-89
2021/03/05 09:35:28;;;;;;;49.72;27.35;;;6.90;68.20;;;;;;5075672;28;20105;-88
2021/03/05 09:37:55;;;;;;;64.20;30.92;;;7.00;68.20;;;;;;5075606;28;20466;-84
2021/03/05 09:40:21;;;;;;;59.58;28.83;;;6.90;68.00;;;;;;5075927;28;20060;-85
2021/03/05 09:42:55;;;;;;;52.85;27.13;;;6.90;68.20;;;;;;5080396;28;20084;-84
2021/03/05 09:45:33;;;;;;;44.53;23.77;;;6.90;68.30;;;;;;5081535;28;20051;-84
2021/03/05 09:47:59;;;;;;;46.20;23.15;;;7.00;68.60;;;;;;5082365;28;20029;-83
2021/03/05 09:50:28;;;;;;;42.97;21.85;;;7.10;68.50;;;;;;5076429;28;20043;-85
2021/03/05 09:52:54;;;;;;;49.33;24.90;;;7.20;68.50;;;;;;5074012;28;20024;-85
2021/03/05 09:55:28;;;;;;;47.10;25.25;;;7.30;68.40;;;;;;5073995;28;20139;-85
2021/03/05 09:58:08;;;;;;;52.47;25.58;;;7.40;67.90;;;;;;5076555;28;20021;-83
2021/03/05 10:00:35;;;;;;;57.97;30.42;;;7.40;67.70;;;;;;5074809;28;20028;-83
2021/03/05 10:03:02;;;;;;;47.67;24.02;;;7.50;67.70;;;;;;5049477;28;681712;-82
2021/03/05 10:05:29;;;;;;;40.65;23.00;;;7.50;67.70;;;;;;5072899;28;20097;-83
2021/03/05 10:07:55;;;;;;;50.22;26.73;;;7.60;68.10;;;;;;5074607;28;20075;-82
2021/03/05 10:10:20;;;;;;;52.40;26.17;;;7.60;67.20;;;;;;5074139;28;20141;-81
2021/03/05 10:12:54;;;;;;;49.70;26.70;;;7.50;66.60;;;;;;5074704;28;20024;-83
2021/03/05 10:15:20;;;;;;;47.60;23.35;;;7.40;66.60;;;;;;5074571;28;20021;-82
2021/03/05 10:17:46;;;;;;;47.25;23.95;;;7.40;66.70;;;;;;5074720;28;20026;-82
2021/03/05 10:20:13;;;;;;;46.40;23.42;;;7.40;66.70;;;;;;5073666;28;20030;-79
2021/03/05 10:22:39;;;;;;;43.10;22.42;;;7.30;66.80;;;;;;5072623;28;20194;-77
2021/03/05 10:25:05;;;;;;;49.50;22.77;;;7.30;66.80;;;;;;5072149;28;20132;-76
2021/03/05 10:27:41;;;;;;;47.85;24.25;;;7.40;66.70;;;;;;5072644;28;20497;-77
2021/03/05 10:30:08;;;;;;;45.78;23.73;;;7.40;66.70;;;;;;5072827;28;20162;-79
2021/03/05 10:32:42;;;;;;;52.45;25.38;;;7.40;66.90;;;;;;5071817;28;20021;-78
2021/03/05 10:35:13;;;;;;;67.75;37.97;;;7.40;66.80;;;;;;5071315;28;20547;-78
2021/03/05 10:37:39;;;;;;;52.53;26.48;;;7.40;66.70;;;;;;5071508;28;20024;-78
2021/03/05 10:40:10;;;;;;;50.63;25.17;;;7.40;66.80;;;;;;5073080;28;20443;-77
2021/03/05 10:42:36;;;;;;;49.20;23.80;;;7.50;66.70;;;;;;5072947;28;20051;-77
2021/03/05 10:45:04;;;;;;;52.35;26.00;;;7.40;66.60;;;;;;5071506;28;20104;-77
2021/03/05 10:47:32;;;;;;;54.53;26.55;;;7.50;66.30;;;;;;5071986;28;20043;-77
2021/03/05 10:49:58;;;;;;;51.53;26.63;;;7.40;66.30;;;;;;5072081;28;20031;-79
2021/03/05 10:52:23;;;;;;;47.65;24.42;;;7.40;66.70;;;;;;5072199;28;20025;-80
2021/03/05 10:54:49;;;;;;;48.42;24.98;;;7.40;66.90;;;;;;5072378;28;20040;-78
2021/03/05 10:57:17;;;;;;;59.60;28.33;;;7.50;67.00;;;;;;5070528;28;20475;-78
2021/03/05 10:59:43;;;;;;;50.78;25.58;;;7.60;66.80;;;;;;5072315;28;20494;-77
2021/03/05 11:02:10;;;;;;;46.90;24.30;;;7.60;66.50;;;;;;5072025;28;20063;-78
2021/03/05 11:04:36;;;;;;;46.05;24.10;;;7.70;66.30;;;;;;5072127;28;20063;-76
2021/03/05 11:07:02;;;;;;;51.45;25.83;;;7.60;66.10;;;;;;5073690;28;20391;-78
2021/03/05 11:09:28;;;;;;;45.72;24.23;;;7.60;66.30;;;;;;5071231;28;20040;-79
2021/03/05 11:11:55;;;;;;;54.75;29.15;;;7.70;66.40;;;;;;5072539;28;20040;-78
2021/03/05 11:14:21;;;;;;;46.90;23.27;;;7.70;66.40;;;;;;5071503;28;20035;-77
2021/03/05 11:16:48;;;;;;;44.88;23.70;;;7.60;65.80;;;;;;5072537;28;20051;-78
2021/03/05 11:19:14;;;;;;;46.75;24.30;;;7.50;65.40;;;;;;5071975;28;20029;-79
2021/03/05 11:21:39;;;;;;;66.05;30.88;;;7.40;66.00;;;;;;5072355;28;20024;-78
2021/03/05 11:24:07;;;;;;;51.10;26.08;;;7.30;66.00;;;;;;5072432;28;20028;-78
2021/03/05 11:26:33;;;;;;;42.53;22.98;;;7.20;66.20;;;;;;5072468;28;20096;-79
2021/03/05 11:29:13;;;;;;;52.05;25.63;;;7.20;66.50;;;;;;5072283;28;20024;-78
2021/03/05 11:31:39;;;;;;;56.90;29.50;;;7.20;67.10;;;;;;5071181;28;20024;-79
2021/03/05 11:34:04;;;;;;;51.97;28.40;;;7.30;66.70;;;;;;5070672;28;20076;-79
2021/03/05 11:36:30;;;;;;;47.17;24.30;;;7.30;66.90;;;;;;5070486;28;20504;-80
2021/03/05 11:38:56;;;;;;;53.50;27.42;;;7.30;66.90;;;;;;5070903;28;20036;-78
2021/03/05 11:41:22;;;;;;;52.25;27.00;;;7.30;66.80;;;;;;5071704;28;20029;-78
2021/03/05 11:43:50;;;;;;;51.63;26.48;;;7.30;66.70;;;;;;5072048;28;20031;-78
2021/03/05 11:46:21;;;;;;;54.75;27.27;;;7.30;66.70;;;;;;5072059;28;20498;-78
2021/03/05 11:48:46;;;;;;;47.97;24.55;;;7.30;66.50;;;;;;5071760;28;20051;-79
2021/03/05 11:51:13;;;;;;;50.13;25.70;;;7.20;66.50;;;;;;5071889;28;20020;-79
2021/03/05 11:53:39;;;;;;;50.17;26.77;;;7.20;66.70;;;;;;5071578;28;20020;-78
2021/03/05 11:56:06;;;;;;;54.55;28.00;;;7.10;66.80;;;;;;5071884;28;20112;-78
2021/03/05 11:58:32;;;;;;;50.70;24.70;;;7.10;66.90;;;;;;5072139;28;20042;-79
2021/03/05 12:00:59;;;;;;;52.03;26.15;;;7.10;66.80;;;;;;5072144;28;20021;-78
2021/03/05 12:03:24;;;;;;;55.05;28.35;;;7.10;66.90;;;;;;5054075;28;20403;-79
2021/03/05 12:05:51;;;;;;;52.03;26.73;;;7.10;66.90;;;;;;5072126;28;20020;-77
2021/03/05 12:08:17;;;;;;;58.30;30.25;;;7.10;67.10;;;;;;5054303;28;20025;-79
2021/03/05 12:10:42;;;;;;;56.10;28.85;;;7.10;67.30;;;;;;5072302;28;20374;-78
2021/03/05 12:13:10;;;;;;;69.15;33.70;;;7.10;67.00;;;;;;5071057;28;20024;-78
2021/03/05 12:15:36;;;;;;;70.28;35.95;;;7.10;67.40;;;;;;5071104;28;20024;-78
2021/03/05 12:18:02;;;;;;;67.50;35.83;;;7.10;67.70;;;;;;5072576;28;20021;-78
2021/03/05 12:20:28;;;;;;;59.25;30.08;;;7.20;67.80;;;;;;5073435;28;20043;-79
2021/03/05 12:22:54;;;;;;;63.60;31.05;;;7.20;67.80;;;;;;5076970;28;20032;-80
2021/03/05 12:25:20;;;;;;;65.65;32.55;;;7.30;67.70;;;;;;5070738;28;20029;-79
2021/03/05 12:27:45;;;;;;;61.70;31.02;;;7.40;67.60;;;;;;5071944;28;20032;-79
2021/03/05 12:30:12;;;;;;;64.97;34.03;;;7.40;67.50;;;;;;5072126;28;20039;-78
2021/03/05 12:32:38;;;;;;;66.25;34.17;;;7.50;67.40;;;;;;5071598;28;20031;-78
2021/03/05 12:35:06;;;;;;;80.97;37.78;;;7.50;67.20;;;;;;5070735;28;20021;-78
2021/03/05 12:37:37;;;;;;;58.72;28.48;;;7.50;67.20;;;;;;5070824;28;20024;-78
2021/03/05 12:40:04;;;;;;;53.95;27.35;;;7.50;67.20;;;;;;5070777;28;20537;-78
2021/03/05 12:42:29;;;;;;;48.22;26.02;;;7.50;67.10;;;;;;5071534;28;20036;-78
2021/03/05 12:44:55;;;;;;;62.65;31.52;;;7.50;67.00;;;;;;5070563;28;20077;-78
2021/03/05 12:47:21;;;;;;;62.55;33.65;;;7.50;66.90;;;;;;5071757;28;20043;-80
2021/03/05 12:49:47;;;;;;;114.18;58.38;;;7.50;66.70;;;;;;5072697;28;20028;-79